createdAt,value
2022-11-16T00:00:40.869Z,985.37
2022-11-16T00:01:43.769Z,985.41
2022-11-16T00:02:46.451Z,985.45
2022-11-16T00:03:49.162Z,985.46
2022-11-16T00:04:51.745Z,985.48
2022-11-16T00:05:54.468Z,985.42
2022-11-16T00:06:57.284Z,985.46
2022-11-16T00:07:59.917Z,985.43
2022-11-16T00:09:02.549Z,985.46
2022-11-16T00:10:05.192Z,985.48
2022-11-16T00:11:07.836Z,985.44
2022-11-16T00:12:10.476Z,985.5
2022-11-16T00:13:13.088Z,985.51
2022-11-16T00:14:15.709Z,985.51
2022-11-16T00:15:18.363Z,985.48
2022-11-16T00:16:20.992Z,985.48
2022-11-16T00:17:23.624Z,985.42
2022-11-16T00:18:26.252Z,985.49
2022-11-16T00:19:28.889Z,985.48
2022-11-16T00:20:31.533Z,985.43
2022-11-16T00:21:34.295Z,985.42
2022-11-16T00:22:36.957Z,985.33
2022-11-16T00:23:39.615Z,985.28
2022-11-16T00:24:42.242Z,985.34
2022-11-16T00:25:44.875Z,985.38
2022-11-16T00:26:48.048Z,985.4
2022-11-16T00:27:50.649Z,985.37
2022-11-16T00:28:53.292Z,985.38
2022-11-16T00:29:56.112Z,985.34
2022-11-16T00:30:58.710Z,985.36
2022-11-16T00:32:01.331Z,985.31
2022-11-16T00:33:06.686Z,985.35
2022-11-16T00:34:09.038Z,985.34
2022-11-16T00:35:11.706Z,985.3
2022-11-16T00:36:14.356Z,985.3
2022-11-16T00:37:17.012Z,985.27
2022-11-16T00:38:19.642Z,985.27
2022-11-16T00:39:22.308Z,985.23
2022-11-16T00:40:24.955Z,985.2
2022-11-16T00:41:27.599Z,985.14
2022-11-16T00:42:30.248Z,985.19
2022-11-16T00:43:32.864Z,985.16
2022-11-16T00:44:35.515Z,985.17
2022-11-16T00:45:38.129Z,985.2
2022-11-16T00:46:40.826Z,985.17
2022-11-16T00:47:43.424Z,985.14
2022-11-16T00:48:46.063Z,985.18
2022-11-16T00:49:48.666Z,985.17
2022-11-16T00:50:51.281Z,985.16
2022-11-16T00:51:53.919Z,985.13
2022-11-16T00:52:56.648Z,985.13
2022-11-16T00:53:59.499Z,985.17
2022-11-16T00:55:02.104Z,985.08
2022-11-16T00:56:04.727Z,985.1
2022-11-16T00:57:07.367Z,985.1
2022-11-16T00:58:10.000Z,985.14
2022-11-16T00:59:12.660Z,985.07
2022-11-16T01:00:15.282Z,985.12
2022-11-16T01:01:18.135Z,985.09
2022-11-16T01:02:20.768Z,985.08
2022-11-16T01:03:23.431Z,985.07
2022-11-16T01:04:26.106Z,985.09
2022-11-16T01:05:28.710Z,985.1
2022-11-16T01:06:31.325Z,985.08
2022-11-16T01:07:34.300Z,985.08
2022-11-16T01:08:37.560Z,985.11
2022-11-16T01:09:43.704Z,985.02
2022-11-16T01:10:46.205Z,985.07
2022-11-16T01:11:48.867Z,985.1
2022-11-16T01:12:51.501Z,985.15
2022-11-16T01:13:54.148Z,985.17
2022-11-16T01:14:56.800Z,985.17
2022-11-16T01:15:59.427Z,985.1
2022-11-16T01:17:02.069Z,985.16
2022-11-16T01:18:04.679Z,985.21
2022-11-16T01:19:07.914Z,985.17
2022-11-16T01:20:10.494Z,985.2
2022-11-16T01:21:13.339Z,985.2
2022-11-16T01:22:19.500Z,985.22
2022-11-16T01:23:22.490Z,985.24
2022-11-16T01:24:25.189Z,985.26
2022-11-16T01:25:27.805Z,985.25
2022-11-16T01:26:30.442Z,985.26
2022-11-16T01:27:33.116Z,985.31
2022-11-16T01:28:37.272Z,985.29
2022-11-16T01:29:40.790Z,985.32
2022-11-16T01:30:43.357Z,985.34
2022-11-16T01:31:45.954Z,985.35
2022-11-16T01:32:48.596Z,985.39
2022-11-16T01:33:51.226Z,985.36
2022-11-16T01:34:53.846Z,985.38
2022-11-16T01:35:56.454Z,985.33
2022-11-16T01:36:59.060Z,985.36
2022-11-16T01:38:01.704Z,985.36
2022-11-16T01:39:04.491Z,985.36
2022-11-16T01:40:07.221Z,985.37
2022-11-16T01:41:09.844Z,985.38
2022-11-16T01:42:12.509Z,985.45
2022-11-16T01:43:15.162Z,985.43
2022-11-16T01:44:17.787Z,985.51
2022-11-16T01:45:20.368Z,985.5
2022-11-16T01:46:23.195Z,985.49
2022-11-16T01:47:28.349Z,985.55
2022-11-16T01:48:32.475Z,985.57
2022-11-16T01:49:35.240Z,985.56
2022-11-16T01:50:37.960Z,985.57
2022-11-16T01:51:40.660Z,985.56
2022-11-16T01:52:43.274Z,985.57
2022-11-16T01:53:46.140Z,985.57
2022-11-16T01:54:48.782Z,985.62
2022-11-16T01:55:51.499Z,985.65
2022-11-16T01:56:54.107Z,985.7
2022-11-16T01:57:56.784Z,985.66
2022-11-16T01:58:59.412Z,985.73
2022-11-16T02:00:02.070Z,985.76
2022-11-16T02:01:04.975Z,985.9
2022-11-16T02:02:07.632Z,985.84
2022-11-16T02:03:10.305Z,985.88
2022-11-16T02:04:13.169Z,985.96
2022-11-16T02:05:15.787Z,985.94
2022-11-16T02:06:18.410Z,985.89
2022-11-16T02:07:21.579Z,985.89
2022-11-16T02:08:24.143Z,985.79
2022-11-16T02:09:26.791Z,985.7
2022-11-16T02:10:29.416Z,985.77
2022-11-16T02:11:32.207Z,985.65
2022-11-16T02:12:34.817Z,985.65
2022-11-16T02:13:37.477Z,985.64
2022-11-16T02:14:40.100Z,985.54
2022-11-16T02:15:42.688Z,985.54
2022-11-16T02:16:45.557Z,985.44
2022-11-16T02:17:48.164Z,985.32
2022-11-16T02:18:50.844Z,985.24
2022-11-16T02:19:53.453Z,985.21
2022-11-16T02:20:56.075Z,985.16
2022-11-16T02:21:58.732Z,985.17
2022-11-16T02:23:01.413Z,985.14
2022-11-16T02:24:04.056Z,985.19
2022-11-16T02:25:06.842Z,985.33
2022-11-16T02:26:09.482Z,985.41
2022-11-16T02:27:12.195Z,985.42
2022-11-16T02:28:16.351Z,985.47
2022-11-16T02:29:18.870Z,985.42
2022-11-16T02:30:21.694Z,985.52
2022-11-16T02:31:24.337Z,985.53
2022-11-16T02:32:26.993Z,985.58
2022-11-16T02:33:29.569Z,985.58
2022-11-16T02:34:32.415Z,985.57
2022-11-16T02:35:35.048Z,985.61
2022-11-16T02:36:37.705Z,985.6
2022-11-16T02:37:40.348Z,985.53
2022-11-16T02:38:42.970Z,985.56
2022-11-16T02:39:45.599Z,985.58
2022-11-16T02:40:48.282Z,985.57
2022-11-16T02:41:50.875Z,985.57
2022-11-16T02:42:53.599Z,985.57
2022-11-16T02:43:56.237Z,985.6
2022-11-16T02:44:58.826Z,985.56
2022-11-16T02:46:01.470Z,985.6
2022-11-16T02:47:04.179Z,985.64
2022-11-16T02:48:06.824Z,985.6
2022-11-16T02:49:09.465Z,985.61
2022-11-16T02:50:12.104Z,985.57
2022-11-16T02:51:14.739Z,985.59
2022-11-16T02:52:17.377Z,985.55
2022-11-16T02:53:20.023Z,985.5
2022-11-16T02:54:22.671Z,985.58
2022-11-16T02:55:25.295Z,985.51
2022-11-16T02:56:28.616Z,985.51
2022-11-16T02:57:31.189Z,985.54
2022-11-16T02:58:35.323Z,985.53
2022-11-16T02:59:38.142Z,985.55
2022-11-16T03:00:40.977Z,985.57
2022-11-16T03:01:43.598Z,985.54
2022-11-16T03:02:46.253Z,985.59
2022-11-16T03:03:48.885Z,985.62
2022-11-16T03:04:51.512Z,985.65
2022-11-16T03:05:54.181Z,985.69
2022-11-16T03:06:57.734Z,985.7
2022-11-16T03:08:00.972Z,985.71
2022-11-16T03:09:03.660Z,985.7
2022-11-16T03:10:06.279Z,985.7
2022-11-16T03:11:09.165Z,985.66
2022-11-16T03:12:11.965Z,985.77
2022-11-16T03:13:14.573Z,985.73
2022-11-16T03:14:17.350Z,985.69
2022-11-16T03:15:19.960Z,985.67
2022-11-16T03:16:22.606Z,985.57
2022-11-16T03:17:25.221Z,985.48
2022-11-16T03:18:27.853Z,985.39
2022-11-16T03:19:30.487Z,985.37
2022-11-16T03:20:33.115Z,985.41
2022-11-16T03:21:35.738Z,985.49
2022-11-16T03:22:38.387Z,985.47
2022-11-16T03:23:41.061Z,985.49
2022-11-16T03:24:43.716Z,985.43
2022-11-16T03:25:46.535Z,985.5
2022-11-16T03:26:49.377Z,985.54
2022-11-16T03:27:52.008Z,985.52
2022-11-16T03:28:54.638Z,985.53
2022-11-16T03:29:57.405Z,985.51
2022-11-16T03:31:00.102Z,985.5
2022-11-16T03:32:03.307Z,985.51
2022-11-16T03:33:06.152Z,985.51
2022-11-16T03:35:31.455Z,985.52
2022-11-16T03:36:34.035Z,985.48
2022-11-16T03:37:37.239Z,985.49
2022-11-16T03:38:39.858Z,985.42
2022-11-16T03:39:42.487Z,985.48
2022-11-16T03:40:45.133Z,985.5
2022-11-16T03:41:47.874Z,985.46
2022-11-16T03:42:50.533Z,985.49
2022-11-16T03:43:53.180Z,985.51
2022-11-16T03:44:55.857Z,985.52
2022-11-16T03:45:58.582Z,985.49
2022-11-16T03:47:01.221Z,985.48
2022-11-16T03:48:04.092Z,985.42
2022-11-16T03:49:06.772Z,985.49
2022-11-16T03:50:09.352Z,985.53
2022-11-16T03:51:12.012Z,985.55
2022-11-16T03:52:17.728Z,985.53
2022-11-16T03:53:20.166Z,985.55
2022-11-16T03:54:22.990Z,985.54
2022-11-16T03:55:25.608Z,985.48
2022-11-16T03:56:28.275Z,985.56
2022-11-16T03:57:30.901Z,985.59
2022-11-16T03:58:35.083Z,985.57
2022-11-16T03:59:37.939Z,985.57
2022-11-16T04:00:40.839Z,985.61
2022-11-16T04:01:45.395Z,985.6
2022-11-16T04:02:47.907Z,985.61
2022-11-16T04:03:51.064Z,985.57
2022-11-16T04:05:01.010Z,985.56
2022-11-16T04:06:02.868Z,985.6
2022-11-16T04:07:05.638Z,985.6
2022-11-16T04:08:08.283Z,985.54
2022-11-16T04:09:10.881Z,985.56
2022-11-16T04:10:13.534Z,985.57
2022-11-16T04:11:16.156Z,985.56
2022-11-16T04:12:18.818Z,985.56
2022-11-16T04:13:22.513Z,985.63
2022-11-16T04:14:25.093Z,985.65
2022-11-16T04:15:27.708Z,985.6
2022-11-16T04:16:30.340Z,985.61
2022-11-16T04:17:33.098Z,985.54
2022-11-16T04:18:37.447Z,985.62
2022-11-16T04:19:39.954Z,985.59
2022-11-16T04:20:42.594Z,985.57
2022-11-16T04:21:45.841Z,985.65
2022-11-16T04:22:48.521Z,985.66
2022-11-16T04:23:51.701Z,985.65
2022-11-16T04:24:54.307Z,985.62
2022-11-16T04:25:56.911Z,985.6
2022-11-16T04:26:59.540Z,985.67
2022-11-16T04:28:02.437Z,985.68
2022-11-16T04:29:05.099Z,985.7
2022-11-16T04:30:07.683Z,985.68
2022-11-16T04:31:10.334Z,985.68
2022-11-16T04:32:12.949Z,985.68
2022-11-16T04:33:15.722Z,985.67
2022-11-16T04:34:18.424Z,985.73
2022-11-16T04:35:21.038Z,985.72
2022-11-16T04:36:24.278Z,985.67
2022-11-16T04:37:26.896Z,985.63
2022-11-16T04:38:29.527Z,985.68
2022-11-16T04:39:32.184Z,985.69
2022-11-16T04:40:44.863Z,985.69
2022-11-16T04:41:47.092Z,985.72
2022-11-16T04:42:50.166Z,985.76
2022-11-16T04:43:52.791Z,985.72
2022-11-16T04:44:55.357Z,985.78
2022-11-16T04:45:57.998Z,985.72
2022-11-16T04:47:00.621Z,985.75
2022-11-16T04:48:03.264Z,985.69
2022-11-16T04:49:06.000Z,985.69
2022-11-16T04:50:08.613Z,985.74
2022-11-16T04:51:11.236Z,985.73
2022-11-16T04:52:13.876Z,985.74
2022-11-16T04:53:16.485Z,985.7
2022-11-16T04:54:19.140Z,985.67
2022-11-16T04:55:21.776Z,985.64
2022-11-16T04:56:24.388Z,985.67
2022-11-16T04:57:27.042Z,985.62
2022-11-16T04:58:29.673Z,985.6
2022-11-16T04:59:32.534Z,985.64
2022-11-16T05:00:35.144Z,985.68
2022-11-16T05:01:37.879Z,985.69
2022-11-16T05:02:40.524Z,985.71
2022-11-16T05:03:43.121Z,985.65
2022-11-16T05:04:45.843Z,985.76
2022-11-16T05:05:48.501Z,985.72
2022-11-16T05:06:51.289Z,985.75
2022-11-16T05:07:53.933Z,985.81
2022-11-16T05:08:56.566Z,985.79
2022-11-16T05:09:59.205Z,985.87
2022-11-16T05:11:01.844Z,985.83
2022-11-16T05:12:04.475Z,985.82
2022-11-16T05:13:07.159Z,985.89
2022-11-16T05:14:09.752Z,985.95
2022-11-16T05:15:12.377Z,986.01
2022-11-16T05:16:14.985Z,986.04
2022-11-16T05:17:17.623Z,986.05
2022-11-16T05:18:20.464Z,986.09
2022-11-16T05:19:23.097Z,986.14
2022-11-16T05:20:25.813Z,986.15
2022-11-16T05:21:28.404Z,986.03
2022-11-16T05:22:31.089Z,986.04
2022-11-16T05:23:33.724Z,985.99
2022-11-16T05:24:36.380Z,985.91
2022-11-16T05:25:39.030Z,985.93
2022-11-16T05:26:45.243Z,986.01
2022-11-16T05:27:53.377Z,985.95
2022-11-16T05:28:55.344Z,985.95
2022-11-16T05:32:16.901Z,985.98
2022-11-16T05:33:18.382Z,986.06
2022-11-16T05:35:35.078Z,985.92
2022-11-16T05:36:37.555Z,985.98
2022-11-16T05:37:40.096Z,985.98
2022-11-16T05:38:42.622Z,986.01
2022-11-16T05:40:04.072Z,986
2022-11-16T05:41:05.925Z,986.02
2022-11-16T05:42:08.569Z,986.07
2022-11-16T05:43:13.241Z,986.03
2022-11-16T05:44:15.308Z,986.03
2022-11-16T05:45:30.623Z,986.06
2022-11-16T05:46:32.421Z,986.05
2022-11-16T05:47:39.457Z,986.06
2022-11-16T05:48:41.371Z,986.09
2022-11-16T05:49:43.947Z,986.02
2022-11-16T05:50:46.660Z,986.08
2022-11-16T05:51:56.934Z,986.11
2022-11-16T05:52:58.953Z,986.11
2022-11-16T05:54:01.562Z,986.12
2022-11-16T05:55:04.151Z,986.12
2022-11-16T05:56:11.316Z,986.19
2022-11-16T05:57:13.478Z,986.15
2022-11-16T05:58:16.409Z,986.18
2022-11-16T05:59:19.011Z,986.15
2022-11-16T06:00:28.385Z,986.19
2022-11-16T06:01:30.240Z,986.19
2022-11-16T06:02:32.923Z,986.17
2022-11-16T06:03:35.786Z,986.18
2022-11-16T06:04:38.658Z,986.17
2022-11-16T06:05:41.262Z,986.2
2022-11-16T06:06:43.880Z,986.24
2022-11-16T06:07:46.517Z,986.25
2022-11-16T06:08:51.629Z,986.24
2022-11-16T06:09:57.616Z,986.2
2022-11-16T06:10:59.964Z,986.21
2022-11-16T06:12:02.569Z,986.24
2022-11-16T06:13:05.212Z,986.25
2022-11-16T06:14:07.862Z,986.19
2022-11-16T06:15:10.488Z,986.27
2022-11-16T06:18:37.629Z,986.26
2022-11-16T06:19:40.247Z,986.31
2022-11-16T06:20:42.818Z,986.29
2022-11-16T06:22:04.177Z,986.26
2022-11-16T06:23:06.905Z,986.29
2022-11-16T06:25:53.187Z,986.26
2022-11-16T06:26:55.770Z,986.24
2022-11-16T06:31:10.016Z,986.36
2022-11-16T06:32:12.601Z,986.3
2022-11-16T06:33:15.964Z,986.32
2022-11-16T06:34:18.719Z,986.31
2022-11-16T06:35:25.841Z,986.29
2022-11-16T06:36:27.698Z,986.35
2022-11-16T06:37:30.301Z,986.3
2022-11-16T06:38:38.450Z,986.3
2022-11-16T06:39:47.368Z,986.31
2022-11-16T06:40:49.864Z,986.31
2022-11-16T06:41:52.292Z,986.31
2022-11-16T06:42:59.339Z,986.28
2022-11-16T06:44:01.292Z,986.3
2022-11-16T06:45:14.001Z,986.41
2022-11-16T06:46:16.137Z,986.37
2022-11-16T06:47:28.029Z,986.41
2022-11-16T06:48:30.716Z,986.35
2022-11-16T06:49:33.543Z,986.44
2022-11-16T06:50:36.175Z,986.38
2022-11-16T06:51:38.786Z,986.41
2022-11-16T06:52:41.671Z,986.44
2022-11-16T06:53:44.305Z,986.47
2022-11-16T06:54:46.951Z,986.48
2022-11-16T06:55:55.114Z,986.48
2022-11-16T06:56:57.279Z,986.51
2022-11-16T06:58:05.497Z,986.52
2022-11-16T06:59:09.118Z,986.5
2022-11-16T07:00:11.559Z,986.53
2022-11-16T07:01:14.371Z,986.47
2022-11-16T07:02:17.012Z,986.63
2022-11-16T07:03:19.917Z,986.64
2022-11-16T07:04:22.596Z,986.57
2022-11-16T07:05:32.230Z,986.58
2022-11-16T07:06:34.945Z,986.65
2022-11-16T07:07:37.522Z,986.6
2022-11-16T07:08:40.155Z,986.63
2022-11-16T07:09:47.623Z,986.66
2022-11-16T07:11:09.768Z,986.65
2022-11-16T07:12:13.230Z,986.63
2022-11-16T07:13:15.441Z,986.67
2022-11-16T07:14:18.606Z,986.66
2022-11-16T07:15:21.193Z,986.67
2022-11-16T07:16:23.836Z,986.67
2022-11-16T07:17:32.042Z,986.71
2022-11-16T07:18:37.325Z,986.67
2022-11-16T07:19:40.336Z,986.73
2022-11-16T07:20:43.102Z,986.77
2022-11-16T07:21:45.721Z,986.79
2022-11-16T07:22:48.502Z,986.73
2022-11-16T07:23:53.405Z,986.77
2022-11-16T07:25:01.139Z,986.72
2022-11-16T07:26:03.315Z,986.74
2022-11-16T07:27:05.853Z,986.74
2022-11-16T07:28:17.596Z,986.76
2022-11-16T07:29:19.585Z,986.71
2022-11-16T07:30:22.444Z,986.71
2022-11-16T07:31:38.671Z,986.7
2022-11-16T07:32:41.003Z,986.82
2022-11-16T07:33:48.069Z,986.78
2022-11-16T07:34:50.599Z,986.79
2022-11-16T07:35:53.818Z,986.82
2022-11-16T07:36:56.406Z,986.78
2022-11-16T07:37:59.010Z,986.76
2022-11-16T07:39:01.638Z,986.8
2022-11-16T07:40:04.343Z,986.81
2022-11-16T07:41:06.998Z,986.78
2022-11-16T07:42:10.203Z,986.73
2022-11-16T07:43:18.256Z,986.74
2022-11-16T07:44:20.344Z,986.77
2022-11-16T07:45:37.146Z,986.86
2022-11-16T07:46:48.909Z,986.88
2022-11-16T07:47:51.141Z,986.86
2022-11-16T07:49:11.871Z,986.88
2022-11-16T07:50:14.372Z,986.94
2022-11-16T07:51:16.880Z,986.86
2022-11-16T07:52:30.784Z,986.88
2022-11-16T07:53:56.959Z,986.93
2022-11-16T07:57:02.944Z,986.96
2022-11-16T07:58:04.680Z,986.93
2022-11-16T07:59:43.609Z,986.95
2022-11-16T08:00:45.414Z,986.94
2022-11-16T08:01:48.306Z,986.99
2022-11-16T08:02:56.662Z,986.97
2022-11-16T08:04:00.645Z,986.92
2022-11-16T08:05:02.604Z,986.96
2022-11-16T08:06:14.311Z,986.96
2022-11-16T08:07:16.994Z,986.98
2022-11-16T08:08:19.578Z,987.02
2022-11-16T08:09:29.359Z,987.04
2022-11-16T08:10:32.123Z,987.08
2022-11-16T08:11:34.721Z,987.03
2022-11-16T08:12:48.381Z,986.98
2022-11-16T08:14:02.320Z,987.01
2022-11-16T08:15:10.126Z,987.04
2022-11-16T08:16:17.857Z,987.06
2022-11-16T08:17:19.787Z,987.08
2022-11-16T08:18:22.430Z,987.05
2022-11-16T08:19:25.000Z,987.07
2022-11-16T08:20:27.937Z,987.1
2022-11-16T08:21:30.746Z,987.07
2022-11-16T08:22:33.496Z,987.01
2022-11-16T08:23:36.128Z,987.06
2022-11-16T08:24:38.775Z,987.02
2022-11-16T08:25:41.427Z,987.02
2022-11-16T08:26:44.054Z,987.06
2022-11-16T08:27:46.745Z,987.08
2022-11-16T08:28:50.409Z,987.11
2022-11-16T08:29:53.035Z,987.12
2022-11-16T08:30:55.719Z,987.09
2022-11-16T08:31:58.371Z,987.07
2022-11-16T08:33:01.036Z,987.02
2022-11-16T08:34:03.721Z,987.04
2022-11-16T08:35:06.620Z,987.13
2022-11-16T08:36:14.763Z,987.11
2022-11-16T08:37:17.221Z,987.09
2022-11-16T08:38:19.996Z,987.11
2022-11-16T08:39:22.636Z,987.04
2022-11-16T08:40:25.309Z,987.03
2022-11-16T08:41:27.977Z,987.02
2022-11-16T08:42:31.308Z,987.1
2022-11-16T08:43:33.927Z,987.07
2022-11-16T08:44:36.610Z,987.05
2022-11-16T08:45:39.328Z,987.14
2022-11-16T08:46:42.017Z,987.07
2022-11-16T08:47:45.786Z,987.1
2022-11-16T08:48:48.956Z,987.1
2022-11-16T08:49:51.625Z,987.15
2022-11-16T08:51:18.345Z,987.16
2022-11-16T08:52:16.201Z,987.17
2022-11-16T08:53:19.386Z,987.18
2022-11-16T08:54:22.139Z,987.12
2022-11-16T08:55:24.812Z,987.08
2022-11-16T08:56:27.827Z,987.09
2022-11-16T08:57:30.500Z,987.12
2022-11-16T08:58:34.566Z,987.11
2022-11-16T08:59:37.525Z,987.12
2022-11-16T09:00:40.187Z,987.12
2022-11-16T09:01:43.091Z,987.11
2022-11-16T09:02:46.017Z,987.06
2022-11-16T09:03:49.147Z,987.1
2022-11-16T09:04:51.812Z,987.07
2022-11-16T09:05:54.514Z,987.09
2022-11-16T09:06:57.593Z,987.08
2022-11-16T09:08:00.264Z,987.12
2022-11-16T09:09:04.472Z,987.14
2022-11-16T09:10:07.415Z,987.11
2022-11-16T09:11:10.581Z,987.18
2022-11-16T09:12:13.187Z,987.18
2022-11-16T09:13:16.049Z,987.14
2022-11-16T09:14:18.685Z,987.17
2022-11-16T09:15:21.430Z,987.17
2022-11-16T09:16:24.101Z,987.17
2022-11-16T09:17:26.830Z,987.21
2022-11-16T09:18:29.708Z,987.13
2022-11-16T09:19:33.827Z,987.16
2022-11-16T09:20:36.640Z,987.15
2022-11-16T09:21:39.533Z,987.15
2022-11-16T09:22:42.503Z,987.08
2022-11-16T09:23:45.181Z,987.13
2022-11-16T09:24:48.051Z,987.13
2022-11-16T09:25:50.888Z,987.17
2022-11-16T09:26:53.543Z,987.19
2022-11-16T09:27:56.219Z,987.16
2022-11-16T09:28:58.912Z,987.14
2022-11-16T09:30:01.638Z,987.1
2022-11-16T09:31:04.511Z,987.08
2022-11-16T09:32:07.193Z,987.09
2022-11-16T09:33:09.866Z,987.1
2022-11-16T09:34:12.545Z,987.17
2022-11-16T09:35:15.170Z,987.11
2022-11-16T09:36:18.137Z,987.14
2022-11-16T09:37:20.782Z,987.12
2022-11-16T09:38:54.389Z,987.16
2022-11-16T09:39:45.337Z,987.12
2022-11-16T09:40:48.320Z,987.05
2022-11-16T09:41:51.075Z,987.1
2022-11-16T09:42:53.746Z,987.09
2022-11-16T09:43:56.420Z,987.04
2022-11-16T09:44:59.076Z,987.07
2022-11-16T09:46:01.746Z,987.14
2022-11-16T09:47:04.431Z,987.1
2022-11-16T09:48:07.122Z,987.13
2022-11-16T09:49:18.259Z,987.16
2022-11-16T09:50:20.507Z,987.15
2022-11-16T09:51:23.186Z,987.14
2022-11-16T09:52:25.840Z,987.12
2022-11-16T09:53:28.528Z,987.15
2022-11-16T09:54:34.716Z,987.2
2022-11-16T09:55:37.140Z,987.17
2022-11-16T09:56:39.996Z,987.21
2022-11-16T09:57:42.833Z,987.18
2022-11-16T09:58:45.519Z,987.23
2022-11-16T09:59:48.155Z,987.19
2022-11-16T10:00:51.093Z,987.21
2022-11-16T10:01:53.741Z,987.21
2022-11-16T10:02:56.414Z,987.11
2022-11-16T10:04:09.123Z,987.17
2022-11-16T10:05:11.573Z,987.2
2022-11-16T10:06:14.216Z,987.19
2022-11-16T10:07:17.221Z,987.15
2022-11-16T10:08:19.881Z,987.17
2022-11-16T10:09:22.513Z,987.17
2022-11-16T10:10:25.176Z,987.17
2022-11-16T10:11:27.865Z,987.19
2022-11-16T10:12:36.264Z,987.19
2022-11-16T10:13:38.752Z,987.16
2022-11-16T10:14:41.340Z,987.19
2022-11-16T10:15:44.816Z,987.16
2022-11-16T10:16:49.984Z,987.13
2022-11-16T10:17:52.548Z,987.09
2022-11-16T10:18:58.750Z,987.12
2022-11-16T10:20:01.331Z,987.2
2022-11-16T10:21:03.980Z,987.09
2022-11-16T10:22:06.649Z,987.14
2022-11-16T10:23:09.345Z,987.12
2022-11-16T10:24:12.072Z,987.07
2022-11-16T10:25:14.789Z,987.06
2022-11-16T10:26:18.097Z,987.09
2022-11-16T10:27:22.592Z,987.1
2022-11-16T10:28:25.479Z,987.02
2022-11-16T10:29:28.442Z,987.04
2022-11-16T10:30:31.234Z,986.96
2022-11-16T10:31:34.020Z,987
2022-11-16T10:32:36.832Z,987.03
2022-11-16T10:33:39.674Z,987.01
2022-11-16T10:34:42.435Z,986.92
2022-11-16T10:35:45.414Z,986.95
2022-11-16T10:36:48.191Z,986.93
2022-11-16T10:37:50.977Z,987
2022-11-16T10:38:53.722Z,986.91
2022-11-16T10:39:56.299Z,986.91
2022-11-16T10:40:58.893Z,986.89
2022-11-16T10:42:08.249Z,987
2022-11-16T10:43:10.447Z,986.98
2022-11-16T10:44:13.269Z,987
2022-11-16T10:45:15.940Z,987.01
2022-11-16T10:46:18.584Z,986.95
2022-11-16T10:47:21.380Z,986.89
2022-11-16T10:48:24.095Z,986.9
2022-11-16T10:49:26.934Z,986.85
2022-11-16T10:50:29.514Z,986.83
2022-11-16T10:51:32.131Z,986.9
2022-11-16T10:52:34.764Z,986.82
2022-11-16T10:53:38.206Z,986.86
2022-11-16T10:54:44.966Z,986.8
2022-11-16T10:55:47.353Z,986.82
2022-11-16T10:56:49.985Z,986.78
2022-11-16T10:57:52.632Z,986.76
2022-11-16T10:58:55.269Z,986.73
2022-11-16T10:59:58.155Z,986.72
2022-11-16T11:01:01.258Z,986.77
2022-11-16T11:02:03.873Z,986.76
2022-11-16T11:03:07.065Z,986.75
2022-11-16T11:04:10.105Z,986.74
2022-11-16T11:05:12.716Z,986.73
2022-11-16T11:06:15.357Z,986.71
2022-11-16T11:07:18.288Z,986.69
2022-11-16T11:08:20.924Z,986.73
2022-11-16T11:09:23.583Z,986.67
2022-11-16T11:10:29.129Z,986.74
2022-11-16T11:11:31.603Z,986.71
2022-11-16T11:12:34.266Z,986.64
2022-11-16T11:13:37.489Z,986.6
2022-11-16T11:14:40.104Z,986.57
2022-11-16T11:15:42.905Z,986.54
2022-11-16T11:16:45.652Z,986.54
2022-11-16T11:17:48.291Z,986.53
2022-11-16T11:18:50.925Z,986.53
2022-11-16T11:19:53.534Z,986.53
2022-11-16T11:20:56.202Z,986.54
2022-11-16T11:21:58.849Z,986.52
2022-11-16T11:23:01.482Z,986.51
2022-11-16T11:24:42.700Z,986.52
2022-11-16T11:25:26.030Z,986.48
2022-11-16T11:26:37.779Z,986.45
2022-11-16T11:27:39.993Z,986.42
2022-11-16T11:28:42.601Z,986.35
2022-11-16T11:29:45.228Z,986.35
2022-11-16T11:30:48.264Z,986.35
2022-11-16T11:31:50.966Z,986.3
2022-11-16T11:32:53.597Z,986.29
2022-11-16T11:33:56.244Z,986.35
2022-11-16T11:34:58.909Z,986.29
2022-11-16T11:36:01.566Z,986.28
2022-11-16T11:37:04.225Z,986.28
2022-11-16T11:38:08.910Z,986.25
2022-11-16T11:39:11.628Z,986.27
2022-11-16T11:40:14.321Z,986.29
2022-11-16T11:41:16.953Z,986.25
2022-11-16T11:42:19.630Z,986.22
2022-11-16T11:43:22.503Z,986.3
2022-11-16T11:44:25.117Z,986.25
2022-11-16T11:45:27.804Z,986.25
2022-11-16T11:47:28.944Z,986.23
2022-11-16T11:48:00.686Z,986.27
2022-11-16T11:49:03.196Z,986.22
2022-11-16T11:50:05.777Z,986.28
2022-11-16T11:51:08.439Z,986.28
2022-11-16T11:52:12.270Z,986.3
2022-11-16T11:53:14.837Z,986.33
2022-11-16T11:54:17.470Z,986.37
2022-11-16T11:55:20.132Z,986.32
2022-11-16T11:56:22.716Z,986.3
2022-11-16T11:57:25.355Z,986.31
2022-11-16T11:58:28.014Z,986.3
2022-11-16T11:59:30.644Z,986.25
2022-11-16T12:00:33.334Z,986.27
2022-11-16T12:01:36.100Z,986.25
2022-11-16T12:02:39.122Z,986.26
2022-11-16T12:03:41.801Z,986.18
2022-11-16T12:04:44.434Z,986.16
2022-11-16T12:05:47.080Z,986.1
2022-11-16T12:06:50.192Z,986.11
2022-11-16T12:07:52.842Z,986.12
2022-11-16T12:08:55.495Z,985.98
2022-11-16T12:09:58.197Z,985.97
2022-11-16T12:11:00.818Z,986.01
2022-11-16T12:12:03.473Z,985.97
2022-11-16T12:13:06.116Z,986
2022-11-16T12:14:08.729Z,985.99
2022-11-16T12:15:21.412Z,986.01
2022-11-16T12:16:23.653Z,986.03
2022-11-16T12:17:26.399Z,986.01
2022-11-16T12:18:29.231Z,986.03
2022-11-16T12:19:31.978Z,986.05
2022-11-16T12:20:34.616Z,986.03
2022-11-16T12:21:37.281Z,986
2022-11-16T12:22:39.893Z,985.99
2022-11-16T12:23:42.548Z,985.95
2022-11-16T12:24:45.207Z,985.95
2022-11-16T12:25:47.847Z,985.91
2022-11-16T12:26:50.483Z,985.88
2022-11-16T12:27:53.141Z,985.9
2022-11-16T12:28:55.801Z,985.88
2022-11-16T12:29:58.439Z,985.83
2022-11-16T12:31:01.079Z,985.9
2022-11-16T12:32:03.711Z,985.86
2022-11-16T12:33:06.649Z,985.77
2022-11-16T12:34:09.467Z,985.74
2022-11-16T12:35:12.172Z,985.7
2022-11-16T12:36:14.819Z,985.67
2022-11-16T12:37:18.273Z,985.69
2022-11-16T12:38:26.754Z,985.61
2022-11-16T12:39:29.033Z,985.67
2022-11-16T12:40:31.667Z,985.57
2022-11-16T12:41:34.292Z,985.51
2022-11-16T12:42:36.924Z,985.57
2022-11-16T12:43:42.441Z,985.63
2022-11-16T12:44:44.883Z,985.56
2022-11-16T12:45:48.041Z,985.54
2022-11-16T12:46:50.667Z,985.57
2022-11-16T12:47:53.356Z,985.49
2022-11-16T12:48:56.221Z,985.49
2022-11-16T12:49:58.735Z,985.44
2022-11-16T12:51:06.394Z,985.41
2022-11-16T12:52:15.170Z,985.49
2022-11-16T12:53:19.341Z,985.47
2022-11-16T12:55:30.769Z,985.52
2022-11-16T12:56:33.389Z,985.47
2022-11-16T12:57:36.022Z,985.46
2022-11-16T12:58:46.146Z,985.46
2022-11-16T12:59:50.593Z,985.43
2022-11-16T13:00:54.424Z,985.42
2022-11-16T13:02:04.524Z,985.41
2022-11-16T13:03:06.800Z,985.39
2022-11-16T13:04:09.551Z,985.38
2022-11-16T13:05:12.328Z,985.37
2022-11-16T13:06:14.974Z,985.37
2022-11-16T13:07:17.940Z,985.43
2022-11-16T13:08:21.013Z,985.48
2022-11-16T13:09:23.664Z,985.46
2022-11-16T13:10:26.342Z,985.52
2022-11-16T13:11:28.954Z,985.47
2022-11-16T13:12:31.595Z,985.38
2022-11-16T13:13:37.653Z,985.42
2022-11-16T13:14:40.027Z,985.36
2022-11-16T13:15:42.686Z,985.32
2022-11-16T13:16:45.568Z,985.3
2022-11-16T13:17:48.195Z,985.24
2022-11-16T13:18:50.817Z,985.16
2022-11-16T13:19:53.539Z,985.14
2022-11-16T13:20:56.290Z,985.14
2022-11-16T13:21:58.960Z,985.12
2022-11-16T13:23:01.597Z,985.2
2022-11-16T13:24:04.235Z,985.15
2022-11-16T13:25:09.684Z,985.21
2022-11-16T13:26:15.603Z,985.17
2022-11-16T13:27:18.003Z,985.14
2022-11-16T13:28:20.629Z,985.16
2022-11-16T13:29:23.289Z,985.2
2022-11-16T13:30:29.468Z,985.21
2022-11-16T13:31:31.873Z,985.2